Time;durP1;ratioP1;P1;durP2;ratioP2;P2;SDS_P1;SDS_P2;PMS_P1;PMS_P2;Temp;Humidity;BMP_temperature;BMP_pressure;BME280_temperature;BME280_humidity;BME280_pressure;Samples;Min_cycle;Max_cycle;Signal;HPM_P1;HPM_P2
2021/12/20 00:02:12;;;;;;;54.63;14.47;;;;;;;-145.69;100.00;73520.16;5052818;28;20257;-76
2021/12/20 00:04:40;;;;;;;47.20;12.10;;;;;;;-145.69;100.00;73492.28;5052406;28;20566;-77
2021/12/20 00:07:06;;;;;;;47.57;12.97;;;;;;;-145.69;100.00;73504.25;5052850;28;20200;-77
2021/12/20 00:09:34;;;;;;;39.87;12.33;;;;;;;-145.69;100.00;73496.28;5053041;28;20207;-77
2021/12/20 00:12:00;;;;;;;45.70;13.17;;;;;;;-145.69;100.00;73500.25;5054476;28;20619;-77
2021/12/20 00:14:27;;;;;;;56.07;13.80;;;;;;;-145.69;100.00;73500.25;5056389;28;20207;-76
2021/12/20 00:16:53;;;;;;;46.97;13.37;;;;;;;-145.69;100.00;73492.28;5056338;28;20605;-77
2021/12/20 00:19:19;;;;;;;45.67;12.93;;;;;;;-145.69;100.00;73490.31;5056224;28;20260;-77
2021/12/20 00:21:46;;;;;;;52.93;12.97;;;;;;;-145.69;100.00;73492.28;5056111;28;20201;-77
2021/12/20 00:24:12;;;;;;;58.20;15.47;;;;;;;-145.69;100.00;73498.28;5055957;28;20305;-77
2021/12/20 00:26:40;;;;;;;47.80;13.20;;;;;;;-145.69;100.00;73500.25;5055948;28;20207;-77
2021/12/20 00:29:06;;;;;;;42.80;11.30;;;;;;;-145.69;100.00;73488.31;5055846;28;20203;-77
2021/12/20 00:31:33;;;;;;;52.83;14.23;;;;;;;-145.69;100.00;73496.28;5056158;28;20199;-77
2021/12/20 00:33:59;;;;;;;54.60;13.80;;;;;;;-145.69;100.00;73486.31;5055635;28;20265;-77
2021/12/20 00:36:27;;;;;;;45.93;12.50;;;;;;;-145.69;100.00;73492.28;5055772;28;20727;-77
2021/12/20 00:41:37;;;;;;;43.23;11.20;;;;;;;-145.69;100.00;73476.38;5055877;28;20194;-77
2021/12/20 00:44:06;;;;;;;45.57;12.97;;;;;;;-145.69;100.00;73470.41;5055585;28;20285;-77
2021/12/20 00:46:32;;;;;;;41.63;12.00;;;;;;;-145.69;100.00;73476.38;5055794;28;20195;-77
2021/12/20 00:48:59;;;;;;;39.97;12.20;;;;;;;-145.69;100.00;73472.38;5055826;28;20617;-77
2021/12/20 00:51:26;;;;;;;57.93;13.83;;;;;;;-145.69;100.00;73466.41;5055898;28;20199;-77
2021/12/20 00:53:52;;;;;;;58.77;15.00;;;;;;;-145.69;100.00;73464.44;5055617;28;20199;-77
2021/12/20 00:56:19;;;;;;;41.63;12.07;;;;;;;-145.69;100.00;73460.44;5056011;28;20203;-77
2021/12/20 00:58:45;;;;;;;44.10;11.20;;;;;;;-145.69;100.00;73456.47;5055915;28;20245;-77
2021/12/20 01:01:13;;;;;;;42.23;11.30;;;;;;;-145.69;100.00;73464.44;5055913;28;20203;-77
2021/12/20 01:03:39;;;;;;;38.00;11.37;;;;;;;-145.69;100.00;73460.44;5055405;28;20689;-78
2021/12/20 01:06:06;;;;;;;50.70;11.33;;;;;;;-145.69;100.00;73464.44;5055429;28;20253;-77
2021/12/20 01:08:36;;;;;;;37.77;11.40;;;;;;;-145.69;100.00;73454.47;5055378;28;20200;-77
2021/12/20 01:11:03;;;;;;;35.30;10.47;;;;;;;-145.69;100.00;73448.50;5055422;28;20567;-77
2021/12/20 01:13:32;;;;;;;44.20;11.43;;;;;;;-145.69;100.00;73432.56;5055431;28;20296;-77
2021/12/20 01:16:02;;;;;;;34.10;11.17;;;;;;;-145.69;100.00;73432.56;5055309;28;20207;-78
2021/12/20 01:18:30;;;;;;;39.80;12.03;;;;;;;-145.69;100.00;73444.50;5055474;28;20200;-77
2021/12/20 01:20:56;;;;;;;40.77;12.03;;;;;;;-145.69;100.00;73446.50;5055132;28;20199;-76
2021/12/20 01:23:23;;;;;;;39.33;12.00;;;;;;;-145.69;100.00;73456.47;5054900;28;20261;-77
2021/12/20 01:25:49;;;;;;;39.40;11.60;;;;;;;-145.69;100.00;73436.56;5055426;28;20277;-77
2021/12/20 01:28:16;;;;;;;42.03;11.07;;;;;;;-145.69;100.00;73440.53;5055263;28;20229;-77
2021/12/20 01:30:43;;;;;;;36.17;10.53;;;;;;;-145.69;100.00;73448.50;5055449;28;20203;-77
2021/12/20 01:33:11;;;;;;;41.10;11.53;;;;;;;-145.69;100.00;73450.50;5055155;28;20276;-77
2021/12/20 01:35:40;;;;;;;43.57;11.93;;;;;;;-145.69;100.00;73456.47;5054635;28;20234;-77
2021/12/20 01:38:08;;;;;;;41.83;10.87;;;;;;;-145.69;100.00;73452.47;5054500;28;20685;-77
2021/12/20 01:40:35;;;;;;;48.17;12.47;;;;;;;-145.69;100.00;73460.44;5054993;28;20250;-77
2021/12/20 01:43:04;;;;;;;43.37;11.97;;;;;;;-145.69;100.00;73424.59;5055051;28;20249;-77
2021/12/20 01:45:30;;;;;;;41.70;11.80;;;;;;;-145.69;100.00;73428.59;5054767;28;20203;-77
2021/12/20 01:48:06;;;;;;;37.80;11.20;;;;;;;-145.69;100.00;73424.59;5054851;28;20658;-77
2021/12/20 01:50:50;;;;;;;40.10;12.00;;;;;;;-145.69;100.00;73410.66;5055059;28;20210;-77
2021/12/20 01:53:21;;;;;;;44.57;12.80;;;;;;;-145.69;100.00;73408.69;5054587;28;20567;-77
2021/12/20 01:55:48;;;;;;;38.27;11.67;;;;;;;-145.69;100.00;73414.66;5054786;28;20253;-77
2021/12/20 01:58:14;;;;;;;32.57;10.63;;;;;;;-145.69;100.00;73416.66;5054658;28;20211;-77
2021/12/20 02:03:22;;;;;;;35.67;10.23;;;;;;;-145.69;100.00;73422.63;5053843;28;20219;-77
2021/12/20 02:05:53;;;;;;;34.63;10.30;;;;;;;-145.69;100.00;73412.66;5054118;28;20574;-78
2021/12/20 02:08:23;;;;;;;43.40;12.53;;;;;;;-145.69;100.00;73400.72;5054485;28;20207;-77
2021/12/20 02:10:53;;;;;;;38.97;11.37;;;;;;;-145.69;100.00;73408.69;5054260;28;20211;-77
2021/12/20 02:13:20;;;;;;;41.00;11.97;;;;;;;-145.69;100.00;73414.66;5054163;28;20326;-77
2021/12/20 02:15:47;;;;;;;41.70;11.83;;;;;;;-145.69;100.00;73414.66;5054367;28;20670;-77
2021/12/20 02:18:13;;;;;;;34.90;10.17;;;;;;;-145.69;100.00;73404.69;5054412;28;20535;-77
2021/12/20 02:20:41;;;;;;;33.03;10.50;;;;;;;-145.69;100.00;73404.69;5054273;28;20265;-77
2021/12/20 02:23:09;;;;;;;36.73;11.03;;;;;;;-145.69;100.00;73396.72;5054112;28;20199;-77
2021/12/20 02:25:37;;;;;;;29.60;10.50;;;;;;;-145.69;100.00;73400.72;5054186;28;20294;-77
2021/12/20 02:28:07;;;;;;;35.43;10.57;;;;;;;-145.69;100.00;73392.75;5053876;28;20658;-78
2021/12/20 02:30:45;;;;;;;36.97;11.40;;;;;;;-145.69;100.00;73388.78;5053991;28;20195;-77
2021/12/20 02:38:42;;;;;;;37.90;10.73;;;;;;;-145.69;100.00;73402.72;5034091;28;20202;-77
2021/12/20 02:41:12;;;;;;;37.40;11.30;;;;;;;-145.69;100.00;73404.69;5034027;28;20200;-78
2021/12/20 02:43:42;;;;;;;39.13;12.03;;;;;;;-145.69;100.00;73400.72;5033828;28;20320;-78
2021/12/20 02:46:26;;;;;;;33.80;10.70;;;;;;;-145.69;100.00;73384.78;5033936;28;20295;-78
2021/12/20 02:48:52;;;;;;;35.53;10.83;;;;;;;-145.69;100.00;73380.81;5034113;28;20303;-78
2021/12/20 02:51:23;;;;;;;38.53;11.97;;;;;;;-145.69;100.00;73396.72;5048867;28;20195;-77
2021/12/20 02:53:50;;;;;;;39.03;12.07;;;;;;;-145.69;100.00;73392.75;5053572;28;20207;-77
2021/12/20 02:56:16;;;;;;;30.07;10.93;;;;;;;-145.69;100.00;73394.75;5053771;28;20245;-77
2021/12/20 02:58:42;;;;;;;36.50;11.83;;;;;;;-145.69;100.00;73388.78;5053559;28;20269;-77
2021/12/20 03:01:09;;;;;;;39.27;11.00;;;;;;;-145.69;100.00;73374.84;5053766;28;20199;-77
2021/12/20 03:03:36;;;;;;;34.97;11.87;;;;;;;-145.69;100.00;73384.78;5053348;28;20268;-78
2021/12/20 03:06:10;;;;;;;33.10;11.60;;;;;;;-145.69;100.00;73382.81;5053633;28;20203;-78
2021/12/20 03:08:39;;;;;;;31.93;11.27;;;;;;;-145.69;100.00;73380.81;5053530;28;20235;-78
2021/12/20 03:11:05;;;;;;;36.23;11.93;;;;;;;-145.69;100.00;73378.81;5053295;28;20681;-78
2021/12/20 03:13:32;;;;;;;42.70;12.50;;;;;;;-145.69;100.00;73370.84;5052868;28;20231;-78
2021/12/20 03:15:59;;;;;;;37.63;11.73;;;;;;;-145.69;100.00;73364.88;5053479;28;20345;-78
2021/12/20 03:18:25;;;;;;;35.23;11.00;;;;;;;-145.69;100.00;73368.88;5053219;28;20594;-78
2021/12/20 03:20:51;;;;;;;38.37;11.93;;;;;;;-145.69;100.00;73368.88;5053390;28;20258;-79
2021/12/20 03:23:18;;;;;;;36.60;12.00;;;;;;;-145.69;100.00;73370.84;5053185;28;20196;-78
2021/12/20 03:25:46;;;;;;;47.20;12.17;;;;;;;-145.69;100.00;73372.84;5053304;28;20200;-78
2021/12/20 03:28:12;;;;;;;33.80;11.87;;;;;;;-145.69;100.00;73364.88;5053240;28;20207;-79
2021/12/20 03:30:39;;;;;;;38.47;12.10;;;;;;;-145.69;100.00;73352.94;5053682;28;20609;-78
2021/12/20 03:33:05;;;;;;;36.53;11.80;;;;;;;-145.69;100.00;73348.97;5053254;28;20210;-78
2021/12/20 03:35:32;;;;;;;38.97;12.33;;;;;;;-145.69;100.00;73352.94;5052850;28;20249;-77
2021/12/20 03:37:58;;;;;;;36.73;12.30;;;;;;;-145.69;100.00;73366.88;5053137;28;20230;-77
2021/12/20 03:40:25;;;;;;;37.10;11.60;;;;;;;-145.69;100.00;73368.88;5052866;28;20203;-77
2021/12/20 03:42:53;;;;;;;34.57;11.03;;;;;;;-145.69;100.00;73366.88;5053355;28;20203;-77
2021/12/20 03:45:19;;;;;;;35.50;12.67;;;;;;;-145.69;100.00;73368.88;5053443;28;20276;-77
2021/12/20 03:47:46;;;;;;;33.80;10.63;;;;;;;-145.69;100.00;73366.88;5057290;28;20202;-77
2021/12/20 03:50:15;;;;;;;32.93;11.13;;;;;;;-145.69;100.00;73372.84;5057186;28;20649;-77
2021/12/20 03:52:41;;;;;;;35.77;11.03;;;;;;;-145.69;100.00;73370.84;5056974;28;20253;-77
2021/12/20 03:55:09;;;;;;;37.50;10.53;;;;;;;-145.69;100.00;73360.91;5056935;28;20199;-77
2021/12/20 03:57:35;;;;;;;32.23;10.77;;;;;;;-145.69;100.00;73354.94;5057259;28;20621;-77
2021/12/20 04:00:06;;;;;;;32.33;10.70;;;;;;;-145.69;100.00;73346.97;5057159;28;20605;-77
2021/12/20 04:02:38;;;;;;;34.50;10.97;;;;;;;-145.69;100.00;73344.97;5056869;28;20203;-78
2021/12/20 04:05:04;;;;;;;36.23;11.43;;;;;;;-145.69;100.00;73360.91;5056588;28;20258;-77
2021/12/20 04:07:31;;;;;;;38.00;11.23;;;;;;;-145.69;100.00;73360.91;5056839;28;20207;-77
2021/12/20 04:09:57;;;;;;;27.90;9.83;;;;;;;-145.69;100.00;73358.91;5056457;28;20233;-77
2021/12/20 04:12:24;;;;;;;33.03;10.80;;;;;;;-145.69;100.00;73356.91;5056669;28;20280;-77
2021/12/20 04:14:51;;;;;;;33.93;10.17;;;;;;;-145.69;100.00;73350.94;5056582;28;20261;-77
2021/12/20 04:17:19;;;;;;;36.30;10.63;;;;;;;-145.69;100.00;73356.91;5056259;28;20203;-78
2021/12/20 04:19:45;;;;;;;30.40;10.17;;;;;;;-145.69;100.00;73364.88;5056102;28;20601;-77
2021/12/20 04:22:11;;;;;;;25.73;10.50;;;;;;;-145.69;100.00;73352.94;5056098;28;20253;-77
2021/12/20 04:24:38;;;;;;;25.10;9.30;;;;;;;-145.69;100.00;73352.94;5056235;28;20228;-78
2021/12/20 04:27:05;;;;;;;24.70;9.43;;;;;;;-145.69;100.00;73352.94;5056162;28;20257;-77
2021/12/20 04:29:31;;;;;;;26.07;9.97;;;;;;;-145.69;100.00;73348.97;5056243;28;20536;-77
2021/12/20 04:31:59;;;;;;;27.83;10.10;;;;;;;-145.69;100.00;73352.94;5056181;28;20206;-78
2021/12/20 04:34:27;;;;;;;29.63;9.87;;;;;;;-145.69;100.00;73350.94;5055686;28;20221;-78
2021/12/20 04:36:54;;;;;;;24.83;9.80;;;;;;;-145.69;100.00;73352.94;5055737;28;20203;-77
2021/12/20 04:39:24;;;;;;;22.00;8.67;;;;;;;-145.69;100.00;73356.91;5055943;28;20195;-77
2021/12/20 04:41:51;;;;;;;25.07;9.03;;;;;;;-145.69;100.00;73352.94;5055889;28;20200;-76
2021/12/20 04:44:17;;;;;;;20.47;8.33;;;;;;;-145.69;100.00;73354.94;5055703;28;20220;-77
2021/12/20 04:46:44;;;;;;;23.03;8.50;;;;;;;-145.69;100.00;73352.94;5055734;28;20199;-76
2021/12/20 04:49:10;;;;;;;23.50;9.00;;;;;;;-145.69;100.00;73356.91;5055613;28;20207;-77
2021/12/20 04:51:38;;;;;;;30.87;10.73;;;;;;;-145.69;100.00;73364.88;5055589;28;20265;-76
2021/12/20 04:54:05;;;;;;;27.87;9.50;;;;;;;-145.69;100.00;73354.94;5055407;28;20679;-77
2021/12/20 04:56:31;;;;;;;27.73;9.60;;;;;;;-145.69;100.00;73360.91;5055157;28;20402;-77
2021/12/20 04:58:58;;;;;;;28.43;10.00;;;;;;;-145.69;100.00;73356.91;5055049;28;20195;-77
2021/12/20 05:01:24;;;;;;;37.53;11.67;;;;;;;-145.69;100.00;73364.88;5055449;28;20203;-76
2021/12/20 05:03:51;;;;;;;29.13;9.93;;;;;;;-145.69;100.00;73360.91;5055154;28;20196;-76
2021/12/20 05:06:17;;;;;;;26.00;10.20;;;;;;;-145.69;100.00;73362.88;5055908;28;20200;-76
2021/12/20 05:08:49;;;;;;;28.60;9.93;;;;;;;-145.69;100.00;73362.88;5055254;28;20207;-77
2021/12/20 05:11:16;;;;;;;31.73;10.87;;;;;;;-145.69;100.00;73370.84;5055049;28;20260;-76
2021/12/20 05:13:43;;;;;;;28.10;9.60;;;;;;;-145.69;100.00;73366.88;5054968;28;20235;-76
2021/12/20 05:16:09;;;;;;;26.57;9.80;;;;;;;-145.69;100.00;73366.88;5055119;28;20199;-77
2021/12/20 05:18:36;;;;;;;23.60;9.13;;;;;;;-145.69;100.00;73370.84;5054860;28;20733;-77
2021/12/20 05:21:03;;;;;;;25.07;8.83;;;;;;;-145.69;100.00;73370.84;5055183;28;20207;-77
2021/12/20 05:23:29;;;;;;;22.83;8.87;;;;;;;-145.69;100.00;73370.84;5055032;28;20540;-77
2021/12/20 05:25:57;;;;;;;24.70;8.50;;;;;;;-145.69;100.00;73364.88;5054933;28;20223;-77
2021/12/20 05:28:23;;;;;;;23.33;8.40;;;;;;;-145.69;100.00;73370.84;5054923;28;20203;-77
2021/12/20 05:30:52;;;;;;;23.10;9.13;;;;;;;-145.69;100.00;73364.88;5054723;28;20203;-76
2021/12/20 05:33:18;;;;;;;19.57;7.77;;;;;;;-145.69;100.00;73358.91;5054681;28;20230;-77
2021/12/20 05:35:45;;;;;;;22.13;8.57;;;;;;;-145.69;100.00;73360.91;5054568;28;20196;-76
2021/12/20 05:38:11;;;;;;;22.17;8.80;;;;;;;-145.69;100.00;73368.88;5054728;28;20203;-77
2021/12/20 05:40:38;;;;;;;21.53;8.33;;;;;;;-145.69;100.00;73364.88;5054624;28;20600;-76
2021/12/20 05:43:06;;;;;;;25.90;8.27;;;;;;;-145.69;100.00;73366.88;5054664;28;20207;-77
2021/12/20 05:45:33;;;;;;;28.40;8.90;;;;;;;-145.69;100.00;73372.84;5054252;28;20235;-76
2021/12/20 05:47:59;;;;;;;22.00;8.60;;;;;;;-145.69;100.00;73378.81;5054787;28;20532;-76
2021/12/20 05:50:26;;;;;;;21.23;7.37;;;;;;;-145.69;100.00;73378.81;5054610;28;20257;-77
2021/12/20 05:52:53;;;;;;;20.07;8.10;;;;;;;-145.69;100.00;73390.75;5054396;28;20658;-77
2021/12/20 05:55:20;;;;;;;23.80;7.90;;;;;;;-145.69;100.00;73392.75;5053909;28;20200;-77
2021/12/20 05:57:47;;;;;;;22.40;8.73;;;;;;;-145.69;100.00;73396.72;5054406;28;20214;-77
2021/12/20 06:00:18;;;;;;;22.07;8.10;;;;;;;-145.69;100.00;73402.72;5054187;28;20544;-77
2021/12/20 06:02:46;;;;;;;22.23;7.47;;;;;;;-145.69;100.00;73404.69;5054456;28;20200;-77
2021/12/20 06:05:13;;;;;;;20.63;8.10;;;;;;;-145.69;100.00;73410.66;5054030;28;20227;-77
2021/12/20 06:07:41;;;;;;;18.97;8.37;;;;;;;-145.69;100.00;73400.72;5054217;28;20273;-77
2021/12/20 06:10:12;;;;;;;22.03;8.63;;;;;;;-145.69;100.00;73400.72;5054217;28;20196;-77
2021/12/20 06:12:39;;;;;;;18.13;7.87;;;;;;;-145.69;100.00;73396.72;5053853;28;20235;-77
2021/12/20 06:15:07;;;;;;;19.53;7.60;;;;;;;-145.69;100.00;73416.66;5054176;28;20206;-77
2021/12/20 06:17:35;;;;;;;20.03;7.37;;;;;;;-145.69;100.00;73414.66;5054098;28;20196;-78
2021/12/20 06:20:02;;;;;;;22.37;8.20;;;;;;;-145.69;100.00;73420.63;5053938;28;20294;-77
2021/12/20 06:22:28;;;;;;;23.87;8.00;;;;;;;-145.69;100.00;73412.66;5053873;28;20200;-77
2021/12/20 06:24:55;;;;;;;29.48;11.63;;;;;;;-145.69;100.00;73410.66;5052935;28;20992;-77
2021/12/20 06:27:21;;;;;;;28.10;8.33;;;;;;;-145.69;100.00;73412.66;5053704;28;20827;-77
2021/12/20 06:29:47;;;;;;;24.87;8.63;;;;;;;-145.69;100.00;73412.66;5053822;28;20195;-77
2021/12/20 06:32:14;;;;;;;21.27;8.17;;;;;;;-145.69;100.00;73424.59;5053767;28;20253;-77
2021/12/20 06:34:42;;;;;;;20.00;7.93;;;;;;;-145.69;100.00;73420.63;5053367;28;20253;-76
2021/12/20 06:37:09;;;;;;;17.07;7.03;;;;;;;-145.69;100.00;73424.59;5053504;28;20725;-77
2021/12/20 06:39:36;;;;;;;17.53;8.03;;;;;;;-145.69;100.00;73424.59;5053525;28;20543;-77
2021/12/20 06:42:03;;;;;;;26.47;8.50;;;;;;;-145.69;100.00;73416.66;5053354;28;20203;-77
2021/12/20 06:44:30;;;;;;;28.97;10.20;;;;;;;-145.69;100.00;73416.66;5053407;28;20206;-77
2021/12/20 06:46:57;;;;;;;27.10;9.63;;;;;;;-145.69;100.00;73412.66;5053793;28;20207;-77
2021/12/20 06:49:23;;;;;;;26.27;10.23;;;;;;;-145.69;100.00;73408.69;5053410;28;20290;-77
2021/12/20 06:51:53;;;;;;;28.30;9.97;;;;;;;-145.69;100.00;73408.69;5053393;28;20285;-77
2021/12/20 06:54:20;;;;;;;30.33;11.10;;;;;;;-145.69;100.00;73392.75;5053134;28;20697;-77
2021/12/20 06:56:47;;;;;;;26.53;9.73;;;;;;;-145.69;100.00;73392.75;5053500;28;20298;-77
2021/12/20 06:59:13;;;;;;;24.87;10.10;;;;;;;-145.69;100.00;73394.75;5053078;28;20203;-77
2021/12/20 07:01:41;;;;;;;24.90;10.33;;;;;;;-145.69;100.00;73398.72;5053382;28;20203;-77
2021/12/20 07:04:08;;;;;;;25.23;9.00;;;;;;;-145.69;100.00;73392.75;5052870;28;20191;-77
2021/12/20 07:06:34;;;;;;;22.80;8.57;;;;;;;-145.69;100.00;73396.72;5053019;28;20276;-77
2021/12/20 07:09:02;;;;;;;23.30;8.87;;;;;;;-145.69;100.00;73392.75;5052880;28;20286;-78
2021/12/20 07:11:29;;;;;;;25.50;9.60;;;;;;;-145.69;100.00;73396.72;5053367;28;20261;-76
2021/12/20 07:13:55;;;;;;;26.63;9.30;;;;;;;-145.69;100.00;73390.75;5052984;28;20575;-77
2021/12/20 07:16:22;;;;;;;20.57;8.23;;;;;;;-145.69;100.00;73392.75;5053113;28;20199;-77
2021/12/20 07:18:49;;;;;;;20.10;7.67;;;;;;;-145.69;100.00;73392.75;5052953;28;20200;-77
2021/12/20 07:21:17;;;;;;;21.00;8.27;;;;;;;-145.69;100.00;73392.75;5052426;28;20654;-76
2021/12/20 07:23:43;;;;;;;23.17;8.33;;;;;;;-145.69;100.00;73388.78;5053141;28;20722;-76
2021/12/20 07:26:13;;;;;;;20.47;7.20;;;;;;;-145.69;100.00;73378.81;5052998;28;20231;-76
2021/12/20 07:28:41;;;;;;;21.87;8.13;;;;;;;-145.69;100.00;73382.81;5053149;28;20223;-77
2021/12/20 07:31:07;;;;;;;19.93;8.13;;;;;;;-145.69;100.00;73392.75;5052918;28;20737;-77
2021/12/20 07:33:34;;;;;;;22.57;8.10;;;;;;;-145.69;100.00;73380.81;5052465;28;20532;-77
2021/12/20 07:36:00;;;;;;;22.43;7.57;;;;;;;-145.69;100.00;73384.78;5052681;28;20246;-77
2021/12/20 07:38:27;;;;;;;21.93;7.30;;;;;;;-145.69;100.00;73380.81;5053028;28;20211;-78
2021/12/20 07:40:54;;;;;;;17.97;7.10;;;;;;;-145.69;100.00;73374.84;5053172;28;20199;-77
2021/12/20 07:43:22;;;;;;;20.00;7.73;;;;;;;-145.69;100.00;73384.78;5052587;28;20214;-77
2021/12/20 07:45:48;;;;;;;16.67;7.10;;;;;;;-145.69;100.00;73384.78;5053014;28;20227;-77
2021/12/20 07:48:16;;;;;;;15.10;6.17;;;;;;;-145.69;100.00;73372.84;5052839;28;20203;-77
2021/12/20 07:50:42;;;;;;;18.27;7.17;;;;;;;-145.69;100.00;73372.84;5050984;28;20207;-77
2021/12/20 07:53:09;;;;;;;17.90;7.03;;;;;;;-145.69;100.00;73384.78;5052830;28;20678;-77
2021/12/20 07:55:36;;;;;;;18.60;7.00;;;;;;;-145.69;100.00;73388.78;5052937;28;20329;-78
2021/12/20 07:58:02;;;;;;;21.20;7.27;;;;;;;-145.69;100.00;73380.81;5052975;28;20195;-77
2021/12/20 08:00:30;;;;;;;19.70;6.90;;;;;;;-145.69;100.00;73368.88;5052727;28;20203;-77
2021/12/20 08:02:57;;;;;;;18.10;6.80;;;;;;;-145.69;100.00;73356.91;5052558;28;20238;-77
2021/12/20 08:05:24;;;;;;;14.70;6.17;;;;;;;-145.69;100.00;73348.97;5052875;28;20231;-77
2021/12/20 08:07:51;;;;;;;31.80;14.00;;;;;;;-145.69;100.00;73360.91;5051868;28;20427;-77
2021/12/20 08:10:18;;;;;;;22.50;10.80;;;;;;;-145.69;100.00;73348.97;5052858;28;20204;-77
2021/12/20 08:12:45;;;;;;;24.00;9.53;;;;;;;-145.69;100.00;73339.00;5052756;28;20318;-77
2021/12/20 08:15:12;;;;;;;19.93;8.80;;;;;;;-145.69;100.00;73331.03;5052574;28;20570;-77
2021/12/20 08:17:41;;;;;;;25.40;10.53;;;;;;;-145.69;100.00;73325.06;5052410;28;20196;-77
2021/12/20 08:20:10;;;;;;;32.03;12.70;;;;;;;-145.69;100.00;73329.03;5052596;28;20196;-78
2021/12/20 08:22:36;;;;;;;37.63;12.93;;;;;;;-145.69;100.00;73307.16;5052382;28;20200;-77
2021/12/20 08:25:04;;;;;;;38.90;16.23;;;;;;;-145.69;100.00;73299.19;5052266;28;20211;-77
2021/12/20 08:27:31;;;;;;;30.93;14.27;;;;;;;-145.69;100.00;73293.22;5052259;28;20207;-77
2021/12/20 08:29:57;;;;;;;32.17;14.00;;;;;;;-145.69;100.00;73293.22;5052156;28;20207;-77
2021/12/20 08:32:27;;;;;;;31.80;13.03;;;;;;;-145.69;100.00;73291.22;5053074;28;20202;-77
2021/12/20 08:34:55;;;;;;;31.83;13.83;;;;;;;-145.69;100.00;73271.31;5055957;28;20200;-78
2021/12/20 08:37:22;;;;;;;31.70;13.90;;;;;;;-145.69;100.00;73277.28;5055953;28;20207;-78
2021/12/20 08:39:51;;;;;;;29.77;13.83;;;;;;;-145.69;100.00;73265.34;5055706;28;20739;-78
2021/12/20 08:42:20;;;;;;;63.37;26.30;;;;;;;-145.69;100.00;73297.19;5055657;28;20627;-77
2021/12/20 08:44:49;;;;;;;37.43;17.17;;;;;;;-145.69;100.00;73301.19;5055515;28;20203;-78
2021/12/20 08:47:21;;;;;;;34.63;15.07;;;;;;;-145.69;100.00;73305.16;5055684;28;20203;-77
2021/12/20 08:49:48;;;;;;;31.87;13.87;;;;;;;-145.69;100.00;73313.13;5055681;28;20199;-78
2021/12/20 08:52:17;;;;;;;30.63;13.27;;;;;;;-145.69;100.00;73289.22;5055593;28;20204;-78
2021/12/20 08:54:45;;;;;;;30.77;13.93;;;;;;;-145.69;100.00;73259.38;5055322;28;20204;-78
2021/12/20 08:57:11;;;;;;;31.03;13.10;;;;;;;-145.69;100.00;73281.25;5055376;28;20204;-78
2021/12/20 08:59:41;;;;;;;32.80;16.20;;;;;;;-145.69;100.00;73259.38;5055007;28;20482;-78
2021/12/20 09:02:09;;;;;;;38.00;18.00;;;;;;;-145.69;100.00;73247.41;5055548;28;20207;-78
2021/12/20 09:04:36;;;;;;;52.37;21.97;;;;;;;-145.69;100.00;73235.47;5055015;28;20291;-78
2021/12/20 09:07:03;;;;;;;37.53;18.73;;;;;;;-145.69;100.00;73211.59;5054997;28;20242;-78
2021/12/20 09:09:46;;;;;;;45.13;22.00;;;;;;;-145.69;100.00;73217.56;5055248;28;20608;-79
2021/12/20 09:12:18;;;;;;;35.33;17.00;;;;;;;-145.69;100.00;73217.56;5055339;28;20234;-80
2021/12/20 09:14:45;;;;;;;31.23;15.47;;;;;;;-145.69;100.00;73213.56;5055221;28;20206;-78
2021/12/20 09:17:12;;;;;;;28.77;12.43;;;;;;;-145.69;100.00;73215.56;5055065;28;20715;-79
2021/12/20 09:19:41;;;;;;;25.80;11.53;;;;;;;-145.69;100.00;73211.59;5055088;28;20200;-78
2021/12/20 09:22:10;;;;;;;27.23;12.17;;;;;;;-145.69;100.00;73189.69;5055113;28;20196;-77
2021/12/20 09:24:38;;;;;;;24.90;10.90;;;;;;;-145.69;100.00;73177.75;5055000;28;20203;-77
2021/12/20 09:27:07;;;;;;;21.07;10.43;;;;;;;-145.69;100.00;73157.84;5054618;28;20234;-76
2021/12/20 09:29:36;;;;;;;21.93;10.90;;;;;;;-145.69;100.00;73151.88;5054939;28;20203;-77
2021/12/20 09:32:03;;;;;;;24.20;9.83;;;;;;;-145.69;100.00;73133.94;5054821;28;20210;-77
2021/12/20 09:34:30;;;;;;;17.60;8.23;;;;;;;-145.69;100.00;73187.69;5054738;28;20204;-77
2021/12/20 09:37:04;;;;;;;16.90;8.30;;;;;;;-145.69;100.00;73145.91;5054722;28;20261;-77
2021/12/20 09:39:32;;;;;;;22.83;9.70;;;;;;;-145.69;100.00;73112.06;5055004;28;20214;-78
2021/12/20 09:42:04;;;;;;;22.77;10.90;;;;;;;-145.69;100.00;73143.91;5054633;28;20219;-77
2021/12/20 09:44:34;;;;;;;22.87;10.50;;;;;;;-145.69;100.00;73122.00;5054492;28;20200;-78
2021/12/20 09:47:03;;;;;;;17.80;9.33;;;;;;;-145.69;100.00;73137.94;5054524;28;20223;-77
2021/12/20 09:49:34;;;;;;;16.40;8.13;;;;;;;-145.69;100.00;73086.19;5054520;28;20210;-77
2021/12/20 09:52:00;;;;;;;24.60;10.37;;;;;;;-145.69;100.00;73078.22;5054534;28;20606;-77
2021/12/20 09:54:29;;;;;;;22.43;9.90;;;;;;;-145.69;100.00;73102.09;5054466;28;20226;-77
2021/12/20 09:57:02;;;;;;;18.50;8.73;;;;;;;-145.69;100.00;73086.19;5054419;28;20658;-77
2021/12/20 09:59:31;;;;;;;18.17;8.47;;;;;;;-145.69;100.00;73084.19;5054527;28;20203;-77
2021/12/20 10:01:59;;;;;;;19.17;8.60;;;;;;;-145.69;100.00;73048.34;5053655;28;20204;-77
2021/12/20 10:04:26;;;;;;;15.20;8.33;;;;;;;-145.69;100.00;73018.50;5053724;28;20206;-78
2021/12/20 10:07:02;;;;;;;17.37;8.53;;;;;;;-145.69;100.00;73010.53;5054250;28;20601;-77
2021/12/20 10:09:32;;;;;;;17.87;7.97;;;;;;;-145.69;100.00;73006.53;5054031;28;20234;-77
2021/12/20 10:12:21;;;;;;;17.70;8.97;;;;;;;-145.69;100.00;73018.50;5053820;28;20211;-77
2021/12/20 10:14:57;;;;;;;16.77;8.57;;;;;;;-145.69;100.00;73028.44;5054458;28;20257;-78
2021/12/20 10:17:27;;;;;;;14.40;6.97;;;;;;;-145.69;100.00;73030.44;5054413;28;20199;-76
2021/12/20 10:19:54;;;;;;;12.10;6.23;;;;;;;-145.69;100.00;72998.59;5054164;28;20253;-78
2021/12/20 10:22:28;;;;;;;12.50;5.53;;;;;;;-145.69;100.00;72966.72;5054074;28;20199;-76
2021/12/20 10:24:57;;;;;;;10.90;4.60;;;;;;;-145.69;100.00;72970.72;5053695;28;20195;-77
2021/12/20 10:27:35;;;;;;;9.60;3.37;;;;;;;-145.69;100.00;72940.84;5054024;28;20235;-77
2021/12/20 10:30:20;;;;;;;6.93;3.43;;;;;;;-145.69;100.00;72958.78;5053895;28;20823;-77
2021/12/20 10:32:48;;;;;;;9.60;4.33;;;;;;;-145.69;100.00;72956.78;5053815;28;20203;-77
2021/12/20 10:35:39;;;;;;;10.03;3.80;;;;;;;-145.69;100.00;72966.72;5054124;28;20212;-77
2021/12/20 10:38:10;;;;;;;9.52;4.40;;;;;;;-145.69;100.00;72976.69;5053390;28;20444;-76
2021/12/20 10:40:48;;;;;;;9.43;2.73;;;;;;;-145.69;100.00;72986.63;5053727;28;20199;-77
2021/12/20 10:43:18;;;;;;;11.00;3.10;;;;;;;-145.69;100.00;72970.72;5053622;28;20226;-77
2021/12/20 10:45:45;;;;;;;5.57;2.47;;;;;;;-145.69;100.00;72974.69;5053580;28;20207;-77
2021/12/20 10:48:13;;;;;;;7.50;2.43;;;;;;;-145.69;100.00;72960.75;5053775;28;20207;-77
2021/12/20 10:50:43;;;;;;;7.33;2.37;;;;;;;-145.69;100.00;72946.81;5053789;28;20206;-77
2021/12/20 10:53:19;;;;;;;7.53;2.40;;;;;;;-145.69;100.00;72964.75;5053281;28;20278;-78
2021/12/20 10:55:48;;;;;;;6.37;2.50;;;;;;;-145.69;100.00;72930.91;5052575;28;20191;-76
2021/12/20 10:58:38;;;;;;;6.83;1.90;;;;;;;-145.69;100.00;72940.84;5053354;28;20297;-77
2021/12/20 11:01:17;;;;;;;6.30;2.57;;;;;;;-145.69;100.00;72930.91;5050487;28;20196;-77
2021/12/20 11:03:55;;;;;;;9.17;2.20;;;;;;;-145.69;100.00;72926.91;5053396;28;20253;-79
2021/12/20 11:06:40;;;;;;;7.90;2.73;;;;;;;-145.69;100.00;72946.81;5052689;28;20231;-77
2021/12/20 11:09:15;;;;;;;8.23;2.50;;;;;;;-145.69;100.00;72926.91;5053216;28;20206;-77
2021/12/20 11:11:46;;;;;;;9.37;3.40;;;;;;;-145.69;100.00;72918.97;5053384;28;20286;-77
2021/12/20 11:14:14;;;;;;;8.63;2.70;;;;;;;-145.69;100.00;72905.03;5053310;28;20566;-77